Howard Landing, California
Current Conditions -  °F | °C
As of 3:58 PM on Monday 20 Oct 2014 (Local Time) from KSUU Reporting Station
Clear Clear  
Wind Chill: 72°   Ceiling: Unl
Heat Index: 72°   Visibility: 10mi
Dew Point: 52°   Wind: 24mph
Humidity: 49%   Direction: 240°WSW
Pressure: 29.9"   Gusts: 26mph
Location:  38.2298°N, 121.579°W
Report Text: KSUU 202258Z AUTO 24021G23KT 10SM CLR 22/11 A2990 RMK AO2 SLP132 T02200109 $
Loading
Personal Weather Stations






























Interactive Weather Map
Tropical Storm Tracking
New forecast layout! Learn more

10-Day Weather Forecast

Advertisements
Track Severe Weather on mobile